sensor_id;sensor_type;location;lat;lon;timestamp;pressure;altitude;pressure_sealevel;temperature;humidity
62632;BME280;48703;51.248;-0.546;2023-07-13T00:00:05;100872;;;15.14;86.27
62632;BME280;48703;51.248;-0.546;2023-07-13T00:03:07;100871;;;15.13;86.07
62632;BME280;48703;51.248;-0.546;2023-07-13T00:06:09;100871;;;15.12;86.27
62632;BME280;48703;51.248;-0.546;2023-07-13T00:09:11;100873;;;15.10;85.65
62632;BME280;48703;51.248;-0.546;2023-07-13T00:12:22;100872;;;15.10;85.47
62632;BME280;48703;51.248;-0.546;2023-07-13T00:15:15;100867;;;15.08;85.84
62632;BME280;48703;51.248;-0.546;2023-07-13T00:18:16;100868;;;15.06;85.94
62632;BME280;48703;51.248;-0.546;2023-07-13T00:21:18;100870;;;15.05;85.72
62632;BME280;48703;51.248;-0.546;2023-07-13T00:24:20;100872;;;15.02;86.32
62632;BME280;48703;51.248;-0.546;2023-07-13T00:27:22;100871;;;14.99;86.13
62632;BME280;48703;51.248;-0.546;2023-07-13T00:30:23;100871;;;14.97;86.15
62632;BME280;48703;51.248;-0.546;2023-07-13T00:33:26;100871;;;14.95;86.02
62632;BME280;48703;51.248;-0.546;2023-07-13T00:36:27;100872;;;14.95;86.09
62632;BME280;48703;51.248;-0.546;2023-07-13T00:39:29;100870;;;14.94;85.94
62632;BME280;48703;51.248;-0.546;2023-07-13T00:42:31;100872;;;14.91;86.42
62632;BME280;48703;51.248;-0.546;2023-07-13T00:46:11;100869;;;14.88;86.01
62632;BME280;48703;51.248;-0.546;2023-07-13T00:48:35;100865;;;14.85;86.36
62632;BME280;48703;51.248;-0.546;2023-07-13T00:51:37;100864;;;14.82;86.23
62632;BME280;48703;51.248;-0.546;2023-07-13T00:54:39;100862;;;14.79;86.47
62632;BME280;48703;51.248;-0.546;2023-07-13T00:57:40;100862;;;14.78;86.22
62632;BME280;48703;51.248;-0.546;2023-07-13T01:00:42;100861;;;14.75;86.16
62632;BME280;48703;51.248;-0.546;2023-07-13T01:03:44;100862;;;14.73;86.24
62632;BME280;48703;51.248;-0.546;2023-07-13T01:06:46;100866;;;14.71;86.14
62632;BME280;48703;51.248;-0.546;2023-07-13T01:09:48;100868;;;14.68;86.36
62632;BME280;48703;51.248;-0.546;2023-07-13T01:12:50;100870;;;14.67;86.39
62632;BME280;48703;51.248;-0.546;2023-07-13T01:15:52;100873;;;14.65;86.34
62632;BME280;48703;51.248;-0.546;2023-07-13T01:18:54;100872;;;14.64;86.48
62632;BME280;48703;51.248;-0.546;2023-07-13T01:21:55;100872;;;14.62;86.47
62632;BME280;48703;51.248;-0.546;2023-07-13T01:24:57;100871;;;14.61;86.69
62632;BME280;48703;51.248;-0.546;2023-07-13T01:27:59;100874;;;14.56;86.84
62632;BME280;48703;51.248;-0.546;2023-07-13T01:31:01;100873;;;14.56;86.74
62632;BME280;48703;51.248;-0.546;2023-07-13T01:34:03;100871;;;14.53;87.17
62632;BME280;48703;51.248;-0.546;2023-07-13T01:37:05;100871;;;14.51;88.13
62632;BME280;48703;51.248;-0.546;2023-07-13T01:40:07;100871;;;14.47;87.50
62632;BME280;48703;51.248;-0.546;2023-07-13T01:43:08;100873;;;14.47;87.86
62632;BME280;48703;51.248;-0.546;2023-07-13T01:46:10;100874;;;14.44;87.40
62632;BME280;48703;51.248;-0.546;2023-07-13T01:49:12;100873;;;14.44;86.90
62632;BME280;48703;51.248;-0.546;2023-07-13T01:52:14;100869;;;14.45;87.38
62632;BME280;48703;51.248;-0.546;2023-07-13T01:55:16;100870;;;14.45;87.45
62632;BME280;48703;51.248;-0.546;2023-07-13T01:58:18;100866;;;14.42;87.23
62632;BME280;48703;51.248;-0.546;2023-07-13T02:01:20;100867;;;14.39;87.55
62632;BME280;48703;51.248;-0.546;2023-07-13T02:04:22;100863;;;14.40;86.92
62632;BME280;48703;51.248;-0.546;2023-07-13T02:07:23;100856;;;14.38;87.45
62632;BME280;48703;51.248;-0.546;2023-07-13T02:10:26;100857;;;14.36;87.39
62632;BME280;48703;51.248;-0.546;2023-07-13T02:13:27;100858;;;14.35;87.21
62632;BME280;48703;51.248;-0.546;2023-07-13T02:16:29;100861;;;14.33;87.30
62632;BME280;48703;51.248;-0.546;2023-07-13T02:19:31;100867;;;14.33;87.30
62632;BME280;48703;51.248;-0.546;2023-07-13T02:22:33;100868;;;14.30;87.17
62632;BME280;48703;51.248;-0.546;2023-07-13T02:25:35;100864;;;14.28;86.82
62632;BME280;48703;51.248;-0.546;2023-07-13T02:28:37;100862;;;14.24;87.81
62632;BME280;48703;51.248;-0.546;2023-07-13T02:31:38;100857;;;14.22;87.14
62632;BME280;48703;51.248;-0.546;2023-07-13T02:34:40;100861;;;14.17;87.57
62632;BME280;48703;51.248;-0.546;2023-07-13T02:37:42;100867;;;14.13;87.46
62632;BME280;48703;51.248;-0.546;2023-07-13T02:40:45;100866;;;14.11;87.73
62632;BME280;48703;51.248;-0.546;2023-07-13T02:43:46;100866;;;14.08;87.56
62632;BME280;48703;51.248;-0.546;2023-07-13T02:46:48;100864;;;14.06;88.11
62632;BME280;48703;51.248;-0.546;2023-07-13T02:49:50;100863;;;14.03;87.86
62632;BME280;48703;51.248;-0.546;2023-07-13T02:52:52;100866;;;14.03;87.38
62632;BME280;48703;51.248;-0.546;2023-07-13T02:55:53;100862;;;14.04;86.89
62632;BME280;48703;51.248;-0.546;2023-07-13T02:58:55;100866;;;14.04;87.52
62632;BME280;48703;51.248;-0.546;2023-07-13T03:01:57;100870;;;13.99;87.42
62632;BME280;48703;51.248;-0.546;2023-07-13T03:04:59;100873;;;13.96;87.59
62632;BME280;48703;51.248;-0.546;2023-07-13T03:08:01;100875;;;13.95;87.67
62632;BME280;48703;51.248;-0.546;2023-07-13T03:11:04;100871;;;13.93;87.30
62632;BME280;48703;51.248;-0.546;2023-07-13T03:14:05;100868;;;13.94;86.91
62632;BME280;48703;51.248;-0.546;2023-07-13T03:17:07;100867;;;13.95;87.26
62632;BME280;48703;51.248;-0.546;2023-07-13T03:20:09;100873;;;13.89;86.94
62632;BME280;48703;51.248;-0.546;2023-07-13T03:23:10;100874;;;13.87;87.45
62632;BME280;48703;51.248;-0.546;2023-07-13T03:26:13;100880;;;13.87;87.66
62632;BME280;48703;51.248;-0.546;2023-07-13T03:29:14;100884;;;13.86;87.69
62632;BME280;48703;51.248;-0.546;2023-07-13T03:32:16;100885;;;13.86;87.50
62632;BME280;48703;51.248;-0.546;2023-07-13T03:35:18;100887;;;13.84;87.90
62632;BME280;48703;51.248;-0.546;2023-07-13T03:38:20;100888;;;13.83;87.73
62632;BME280;48703;51.248;-0.546;2023-07-13T03:41:22;100886;;;13.84;87.36
62632;BME280;48703;51.248;-0.546;2023-07-13T03:44:23;100880;;;13.84;87.18
62632;BME280;48703;51.248;-0.546;2023-07-13T03:47:25;100876;;;13.77;87.21
62632;BME280;48703;51.248;-0.546;2023-07-13T03:50:27;100879;;;13.77;87.33
62632;BME280;48703;51.248;-0.546;2023-07-13T03:53:29;100883;;;13.78;87.22
62632;BME280;48703;51.248;-0.546;2023-07-13T03:56:31;100888;;;13.77;87.27
62632;BME280;48703;51.248;-0.546;2023-07-13T03:59:33;100889;;;13.76;87.01
62632;BME280;48703;51.248;-0.546;2023-07-13T04:02:35;100888;;;13.77;87.03
62632;BME280;48703;51.248;-0.546;2023-07-13T04:05:37;100890;;;13.76;87.61
62632;BME280;48703;51.248;-0.546;2023-07-13T04:08:38;100892;;;13.72;87.49
62632;BME280;48703;51.248;-0.546;2023-07-13T04:11:40;100893;;;13.71;87.66
62632;BME280;48703;51.248;-0.546;2023-07-13T04:14:42;100895;;;13.67;87.66
62632;BME280;48703;51.248;-0.546;2023-07-13T04:17:44;100901;;;13.66;88.01
62632;BME280;48703;51.248;-0.546;2023-07-13T04:20:46;100903;;;13.65;87.68
62632;BME280;48703;51.248;-0.546;2023-07-13T04:23:48;100903;;;13.66;87.62
62632;BME280;48703;51.248;-0.546;2023-07-13T04:26:49;100902;;;13.67;88.11
62632;BME280;48703;51.248;-0.546;2023-07-13T04:29:51;100900;;;13.68;87.61
62632;BME280;48703;51.248;-0.546;2023-07-13T04:32:53;100899;;;13.69;87.66
62632;BME280;48703;51.248;-0.546;2023-07-13T04:35:55;100902;;;13.70;87.52
62632;BME280;48703;51.248;-0.546;2023-07-13T04:38:57;100904;;;13.70;87.71
62632;BME280;48703;51.248;-0.546;2023-07-13T04:41:59;100903;;;13.71;87.98
62632;BME280;48703;51.248;-0.546;2023-07-13T04:45:01;100905;;;13.69;88.26
62632;BME280;48703;51.248;-0.546;2023-07-13T04:48:03;100908;;;13.68;88.38
62632;BME280;48703;51.248;-0.546;2023-07-13T04:51:05;100909;;;13.67;88.69
62632;BME280;48703;51.248;-0.546;2023-07-13T04:54:06;100909;;;13.69;88.06
62632;BME280;48703;51.248;-0.546;2023-07-13T04:57:08;100909;;;13.68;88.86
62632;BME280;48703;51.248;-0.546;2023-07-13T05:00:11;100906;;;13.68;88.93
62632;BME280;48703;51.248;-0.546;2023-07-13T05:03:12;100906;;;13.68;88.27
62632;BME280;48703;51.248;-0.546;2023-07-13T05:06:14;100911;;;13.70;88.06
62632;BME280;48703;51.248;-0.546;2023-07-13T05:09:16;100916;;;13.71;88.65
62632;BME280;48703;51.248;-0.546;2023-07-13T05:12:18;100919;;;13.69;88.78
62632;BME280;48703;51.248;-0.546;2023-07-13T05:15:20;100924;;;13.68;89.62
62632;BME280;48703;51.248;-0.546;2023-07-13T05:18:21;100924;;;13.68;89.27
62632;BME280;48703;51.248;-0.546;2023-07-13T05:21:23;100922;;;13.70;88.77
62632;BME280;48703;51.248;-0.546;2023-07-13T05:24:25;100924;;;13.71;89.83
62632;BME280;48703;51.248;-0.546;2023-07-13T05:27:27;100922;;;13.73;88.99
62632;BME280;48703;51.248;-0.546;2023-07-13T05:30:29;100925;;;13.76;89.36
62632;BME280;48703;51.248;-0.546;2023-07-13T05:33:31;100928;;;13.79;90.37
62632;BME280;48703;51.248;-0.546;2023-07-13T05:36:33;100927;;;13.80;89.71
62632;BME280;48703;51.248;-0.546;2023-07-13T05:39:35;100927;;;13.84;89.68
62632;BME280;48703;51.248;-0.546;2023-07-13T05:42:36;100934;;;13.89;90.31
62632;BME280;48703;51.248;-0.546;2023-07-13T05:45:38;100932;;;13.96;90.59
62632;BME280;48703;51.248;-0.546;2023-07-13T05:48:40;100939;;;14.05;90.64
62632;BME280;48703;51.248;-0.546;2023-07-13T05:51:42;100945;;;14.13;89.94
62632;BME280;48703;51.248;-0.546;2023-07-13T05:54:44;100944;;;14.19;90.01
62632;BME280;48703;51.248;-0.546;2023-07-13T05:57:46;100949;;;14.24;89.45
62632;BME280;48703;51.248;-0.546;2023-07-13T06:00:48;100953;;;14.27;89.90
62632;BME280;48703;51.248;-0.546;2023-07-13T06:03:49;100956;;;14.31;89.13
62632;BME280;48703;51.248;-0.546;2023-07-13T06:06:51;100958;;;14.35;88.56
62632;BME280;48703;51.248;-0.546;2023-07-13T06:09:53;100959;;;14.40;89.32
62632;BME280;48703;51.248;-0.546;2023-07-13T06:12:55;100966;;;14.45;89.05
62632;BME280;48703;51.248;-0.546;2023-07-13T06:15:57;100967;;;14.49;89.17
62632;BME280;48703;51.248;-0.546;2023-07-13T06:18:59;100973;;;14.53;89.00
62632;BME280;48703;51.248;-0.546;2023-07-13T06:22:01;100978;;;14.57;89.93
62632;BME280;48703;51.248;-0.546;2023-07-13T06:25:03;100981;;;14.62;89.60
62632;BME280;48703;51.248;-0.546;2023-07-13T06:28:04;100984;;;14.66;89.05
62632;BME280;48703;51.248;-0.546;2023-07-13T06:31:07;100986;;;14.71;89.07
62632;BME280;48703;51.248;-0.546;2023-07-13T06:34:08;100988;;;14.76;88.81
62632;BME280;48703;51.248;-0.546;2023-07-13T06:37:10;100990;;;14.81;89.31
62632;BME280;48703;51.248;-0.546;2023-07-13T06:40:12;100993;;;14.84;89.08
62632;BME280;48703;51.248;-0.546;2023-07-13T06:43:14;101000;;;14.89;88.36
62632;BME280;48703;51.248;-0.546;2023-07-13T06:46:16;101004;;;14.96;88.80
62632;BME280;48703;51.248;-0.546;2023-07-13T06:49:17;101005;;;15.01;89.10
62632;BME280;48703;51.248;-0.546;2023-07-13T06:52:19;101008;;;15.07;88.94
62632;BME280;48703;51.248;-0.546;2023-07-13T06:55:21;101008;;;15.12;88.21
62632;BME280;48703;51.248;-0.546;2023-07-13T06:58:23;101008;;;15.18;88.33
62632;BME280;48703;51.248;-0.546;2023-07-13T07:01:25;101012;;;15.24;89.01
62632;BME280;48703;51.248;-0.546;2023-07-13T07:04:27;101011;;;15.28;88.17
62632;BME280;48703;51.248;-0.546;2023-07-13T07:07:29;101015;;;15.33;88.50
62632;BME280;48703;51.248;-0.546;2023-07-13T07:10:31;101020;;;15.37;88.05
62632;BME280;48703;51.248;-0.546;2023-07-13T07:13:32;101028;;;15.40;88.04
62632;BME280;48703;51.248;-0.546;2023-07-13T07:16:34;101029;;;15.44;87.65
62632;BME280;48703;51.248;-0.546;2023-07-13T07:19:37;101032;;;15.50;87.70
62632;BME280;48703;51.248;-0.546;2023-07-13T07:22:38;101038;;;15.55;87.32
62632;BME280;48703;51.248;-0.546;2023-07-13T07:25:40;101042;;;15.58;87.03
62632;BME280;48703;51.248;-0.546;2023-07-13T07:28:42;101045;;;15.63;87.19
62632;BME280;48703;51.248;-0.546;2023-07-13T07:31:44;101042;;;15.67;86.35
62632;BME280;48703;51.248;-0.546;2023-07-13T07:34:46;101040;;;15.71;85.89
62632;BME280;48703;51.248;-0.546;2023-07-13T07:37:47;101040;;;15.74;86.20
62632;BME280;48703;51.248;-0.546;2023-07-13T07:40:49;101042;;;15.77;85.99
62632;BME280;48703;51.248;-0.546;2023-07-13T07:43:51;101049;;;15.81;85.70
62632;BME280;48703;51.248;-0.546;2023-07-13T07:46:53;101049;;;15.85;85.99
62632;BME280;48703;51.248;-0.546;2023-07-13T07:49:55;101049;;;15.89;85.84
62632;BME280;48703;51.248;-0.546;2023-07-13T07:52:57;101049;;;15.96;85.77
62632;BME280;48703;51.248;-0.546;2023-07-13T07:55:59;101052;;;16.05;85.85
62632;BME280;48703;51.248;-0.546;2023-07-13T07:59:01;101054;;;16.14;85.43
62632;BME280;48703;51.248;-0.546;2023-07-13T08:02:03;101058;;;16.20;85.01
62632;BME280;48703;51.248;-0.546;2023-07-13T08:05:04;101063;;;16.28;84.72
62632;BME280;48703;51.248;-0.546;2023-07-13T08:08:06;101064;;;16.36;84.68
62632;BME280;48703;51.248;-0.546;2023-07-13T08:11:08;101061;;;16.44;84.60
62632;BME280;48703;51.248;-0.546;2023-07-13T08:14:10;101063;;;16.55;84.83
62632;BME280;48703;51.248;-0.546;2023-07-13T08:17:12;101059;;;16.66;84.23
62632;BME280;48703;51.248;-0.546;2023-07-13T08:20:14;101058;;;16.75;83.90
62632;BME280;48703;51.248;-0.546;2023-07-13T08:23:16;101060;;;16.80;82.54
62632;BME280;48703;51.248;-0.546;2023-07-13T08:26:17;101057;;;16.81;82.32
62632;BME280;48703;51.248;-0.546;2023-07-13T08:29:19;101058;;;16.85;82.53
62632;BME280;48703;51.248;-0.546;2023-07-13T08:32:22;101061;;;16.95;82.88
62632;BME280;48703;51.248;-0.546;2023-07-13T08:35:23;101055;;;17.02;81.40
62632;BME280;48703;51.248;-0.546;2023-07-13T08:38:25;101055;;;17.07;80.25
62632;BME280;48703;51.248;-0.546;2023-07-13T08:41:27;101056;;;17.10;80.91
62632;BME280;48703;51.248;-0.546;2023-07-13T08:44:30;101054;;;17.16;80.37
62632;BME280;48703;51.248;-0.546;2023-07-13T08:47:31;101052;;;17.19;79.70
62632;BME280;48703;51.248;-0.546;2023-07-13T08:50:33;101051;;;17.21;78.95
62632;BME280;48703;51.248;-0.546;2023-07-13T08:53:35;101051;;;17.27;79.89
62632;BME280;48703;51.248;-0.546;2023-07-13T08:56:36;101049;;;17.34;80.27
62632;BME280;48703;51.248;-0.546;2023-07-13T08:59:38;101049;;;17.39;78.99
62632;BME280;48703;51.248;-0.546;2023-07-13T09:02:42;101050;;;17.45;79.25
62632;BME280;48703;51.248;-0.546;2023-07-13T09:05:42;101051;;;17.52;78.91
62632;BME280;48703;51.248;-0.546;2023-07-13T09:08:47;101050;;;17.58;78.39
62632;BME280;48703;51.248;-0.546;2023-07-13T09:11:47;101047;;;17.62;76.92
62632;BME280;48703;51.248;-0.546;2023-07-13T09:14:48;101045;;;17.69;77.16
62632;BME280;48703;51.248;-0.546;2023-07-13T09:17:50;101046;;;17.77;77.64
62632;BME280;48703;51.248;-0.546;2023-07-13T09:20:52;101046;;;17.85;78.06
62632;BME280;48703;51.248;-0.546;2023-07-13T09:23:53;101042;;;17.93;76.53
62632;BME280;48703;51.248;-0.546;2023-07-13T09:26:55;101043;;;18.01;76.46
62632;BME280;48703;51.248;-0.546;2023-07-13T09:29:58;101046;;;18.06;74.82
62632;BME280;48703;51.248;-0.546;2023-07-13T09:32:59;101048;;;18.11;75.59
62632;BME280;48703;51.248;-0.546;2023-07-13T09:36:01;101051;;;18.12;74.28
62632;BME280;48703;51.248;-0.546;2023-07-13T09:39:04;101053;;;18.14;74.59
62632;BME280;48703;51.248;-0.546;2023-07-13T09:42:07;101053;;;18.21;75.33
62632;BME280;48703;51.248;-0.546;2023-07-13T09:45:06;101053;;;18.30;75.86
62632;BME280;48703;51.248;-0.546;2023-07-13T09:48:11;101054;;;18.39;74.60
62632;BME280;48703;51.248;-0.546;2023-07-13T09:51:13;101055;;;18.46;73.43
62632;BME280;48703;51.248;-0.546;2023-07-13T09:54:20;101058;;;18.50;72.96
62632;BME280;48703;51.248;-0.546;2023-07-13T09:57:15;101059;;;18.54;71.86
62632;BME280;48703;51.248;-0.546;2023-07-13T10:00:19;101061;;;18.54;71.94
62632;BME280;48703;51.248;-0.546;2023-07-13T10:03:18;101061;;;18.56;72.36
62632;BME280;48703;51.248;-0.546;2023-07-13T10:06:20;101063;;;18.60;72.54
62632;BME280;48703;51.248;-0.546;2023-07-13T10:09:21;101062;;;18.62;72.58
62632;BME280;48703;51.248;-0.546;2023-07-13T10:12:23;101058;;;18.67;73.13
62632;BME280;48703;51.248;-0.546;2023-07-13T10:15:25;101061;;;18.72;72.22
62632;BME280;48703;51.248;-0.546;2023-07-13T10:18:27;101066;;;18.79;72.15
62632;BME280;48703;51.248;-0.546;2023-07-13T10:21:30;101066;;;18.83;71.97
62632;BME280;48703;51.248;-0.546;2023-07-13T10:24:31;101066;;;18.85;71.92
62632;BME280;48703;51.248;-0.546;2023-07-13T10:27:33;101063;;;18.88;71.51
62632;BME280;48703;51.248;-0.546;2023-07-13T10:30:35;101060;;;18.94;71.62
62632;BME280;48703;51.248;-0.546;2023-07-13T10:33:36;101057;;;19.00;70.41
62632;BME280;48703;51.248;-0.546;2023-07-13T10:36:39;101054;;;19.07;70.07
62632;BME280;48703;51.248;-0.546;2023-07-13T10:39:40;101055;;;19.15;69.45
62632;BME280;48703;51.248;-0.546;2023-07-13T10:42:43;101058;;;19.21;69.44
62632;BME280;48703;51.248;-0.546;2023-07-13T10:45:43;101062;;;19.27;69.34
62632;BME280;48703;51.248;-0.546;2023-07-13T10:48:46;101059;;;19.33;69.68
62632;BME280;48703;51.248;-0.546;2023-07-13T10:51:47;101059;;;19.36;69.18
62632;BME280;48703;51.248;-0.546;2023-07-13T10:54:49;101060;;;19.33;68.35
62632;BME280;48703;51.248;-0.546;2023-07-13T10:57:51;101062;;;19.28;68.68
62632;BME280;48703;51.248;-0.546;2023-07-13T11:01:02;101059;;;19.25;68.97
62632;BME280;48703;51.248;-0.546;2023-07-13T11:03:55;101059;;;19.26;69.04
62632;BME280;48703;51.248;-0.546;2023-07-13T11:06:57;101059;;;19.26;68.62
62632;BME280;48703;51.248;-0.546;2023-07-13T11:09:59;101058;;;19.26;68.50
62632;BME280;48703;51.248;-0.546;2023-07-13T11:13:00;101061;;;19.24;68.60
62632;BME280;48703;51.248;-0.546;2023-07-13T11:16:12;101066;;;19.23;68.66
62632;BME280;48703;51.248;-0.546;2023-07-13T11:19:26;101085;;;19.12;72.13
62632;BME280;48703;51.248;-0.546;2023-07-13T11:22:11;101088;;;18.90;76.19
62632;BME280;48703;51.248;-0.546;2023-07-13T11:25:40;101089;;;18.71;78.18
62632;BME280;48703;51.248;-0.546;2023-07-13T11:28:16;101093;;;18.56;77.97
62632;BME280;48703;51.248;-0.546;2023-07-13T11:31:13;101093;;;18.43;78.19
62632;BME280;48703;51.248;-0.546;2023-07-13T11:34:14;101093;;;18.34;78.29
62632;BME280;48703;51.248;-0.546;2023-07-13T11:37:16;101094;;;18.27;78.61
62632;BME280;48703;51.248;-0.546;2023-07-13T11:40:17;101093;;;18.24;78.73
62632;BME280;48703;51.248;-0.546;2023-07-13T11:43:19;101093;;;18.21;79.35
62632;BME280;48703;51.248;-0.546;2023-07-13T11:46:22;101089;;;18.19;78.23
62632;BME280;48703;51.248;-0.546;2023-07-13T11:49:24;101088;;;18.17;79.59
62632;BME280;48703;51.248;-0.546;2023-07-13T11:52:27;101085;;;18.14;80.21
62632;BME280;48703;51.248;-0.546;2023-07-13T11:55:27;101072;;;18.18;79.80
62632;BME280;48703;51.248;-0.546;2023-07-13T11:58:28;101070;;;18.26;80.87
62632;BME280;48703;51.248;-0.546;2023-07-13T12:01:31;101071;;;18.32;81.07
62632;BME280;48703;51.248;-0.546;2023-07-13T12:04:32;101070;;;18.31;82.14
62632;BME280;48703;51.248;-0.546;2023-07-13T12:07:34;101071;;;18.27;80.91
62632;BME280;48703;51.248;-0.546;2023-07-13T12:10:36;101073;;;18.22;84.60
62632;BME280;48703;51.248;-0.546;2023-07-13T12:13:38;101068;;;18.17;84.56
62632;BME280;48703;51.248;-0.546;2023-07-13T12:16:40;101066;;;18.15;82.72
62632;BME280;48703;51.248;-0.546;2023-07-13T12:19:42;101060;;;18.18;84.16
62632;BME280;48703;51.248;-0.546;2023-07-13T12:22:45;101059;;;18.19;83.34
62632;BME280;48703;51.248;-0.546;2023-07-13T12:25:45;101056;;;18.24;83.14
62632;BME280;48703;51.248;-0.546;2023-07-13T12:28:48;101053;;;18.33;82.67
62632;BME280;48703;51.248;-0.546;2023-07-13T12:31:49;101051;;;18.46;83.87
62632;BME280;48703;51.248;-0.546;2023-07-13T12:34:52;101047;;;18.55;83.07
62632;BME280;48703;51.248;-0.546;2023-07-13T12:37:53;101042;;;18.57;82.30
62632;BME280;48703;51.248;-0.546;2023-07-13T12:40:55;101039;;;18.60;82.16
62632;BME280;48703;51.248;-0.546;2023-07-13T12:43:56;101037;;;18.65;80.78
62632;BME280;48703;51.248;-0.546;2023-07-13T12:47:02;101038;;;18.73;81.28
62632;BME280;48703;51.248;-0.546;2023-07-13T12:50:03;101034;;;18.81;80.99
62632;BME280;48703;51.248;-0.546;2023-07-13T12:53:03;101028;;;18.84;79.15
62632;BME280;48703;51.248;-0.546;2023-07-13T12:56:04;101030;;;18.89;79.48
62632;BME280;48703;51.248;-0.546;2023-07-13T12:59:08;101028;;;18.89;77.98
62632;BME280;48703;51.248;-0.546;2023-07-13T13:02:17;101030;;;18.86;78.35
62632;BME280;48703;51.248;-0.546;2023-07-13T13:05:10;101032;;;18.86;77.34
62632;BME280;48703;51.248;-0.546;2023-07-13T13:08:12;101033;;;18.82;77.06
62632;BME280;48703;51.248;-0.546;2023-07-13T13:11:13;101030;;;18.77;76.50
62632;BME280;48703;51.248;-0.546;2023-07-13T13:14:15;101029;;;18.77;76.89
62632;BME280;48703;51.248;-0.546;2023-07-13T13:17:18;101032;;;18.76;76.17
62632;BME280;48703;51.248;-0.546;2023-07-13T13:20:20;101030;;;18.76;76.25
62632;BME280;48703;51.248;-0.546;2023-07-13T13:23:21;101033;;;18.79;75.49
62632;BME280;48703;51.248;-0.546;2023-07-13T13:26:23;101034;;;18.84;76.42
62632;BME280;48703;51.248;-0.546;2023-07-13T13:29:25;101035;;;18.93;76.93
62632;BME280;48703;51.248;-0.546;2023-07-13T13:32:26;101030;;;19.02;74.99
62632;BME280;48703;51.248;-0.546;2023-07-13T13:35:28;101025;;;19.12;74.93
62632;BME280;48703;51.248;-0.546;2023-07-13T13:38:30;101018;;;19.22;72.84
62632;BME280;48703;51.248;-0.546;2023-07-13T13:41:32;101018;;;19.28;73.03
62632;BME280;48703;51.248;-0.546;2023-07-13T13:44:34;101015;;;19.29;71.65
62632;BME280;48703;51.248;-0.546;2023-07-13T13:47:36;101016;;;19.27;72.11
62632;BME280;48703;51.248;-0.546;2023-07-13T13:50:38;101023;;;19.25;71.92
62632;BME280;48703;51.248;-0.546;2023-07-13T13:53:40;101022;;;19.22;70.57
62632;BME280;48703;51.248;-0.546;2023-07-13T13:56:42;101021;;;19.18;70.04
62632;BME280;48703;51.248;-0.546;2023-07-13T13:59:43;101019;;;19.11;69.79
62632;BME280;48703;51.248;-0.546;2023-07-13T14:02:46;101017;;;19.11;70.26
62632;BME280;48703;51.248;-0.546;2023-07-13T14:05:47;101012;;;19.19;70.63
62632;BME280;48703;51.248;-0.546;2023-07-13T14:08:49;101013;;;19.32;70.43
62632;BME280;48703;51.248;-0.546;2023-07-13T14:11:51;101007;;;19.45;69.76
62632;BME280;48703;51.248;-0.546;2023-07-13T14:14:53;101003;;;19.57;68.83
62632;BME280;48703;51.248;-0.546;2023-07-13T14:17:55;101004;;;19.64;69.09
62632;BME280;48703;51.248;-0.546;2023-07-13T14:20:56;101001;;;19.76;68.79
62632;BME280;48703;51.248;-0.546;2023-07-13T14:23:58;101004;;;19.88;67.36
62632;BME280;48703;51.248;-0.546;2023-07-13T14:27:00;101007;;;20.00;68.21
62632;BME280;48703;51.248;-0.546;2023-07-13T14:30:02;101008;;;20.11;66.39
62632;BME280;48703;51.248;-0.546;2023-07-13T14:33:04;101006;;;20.26;65.96
62632;BME280;48703;51.248;-0.546;2023-07-13T14:36:12;101006;;;20.43;65.78
62632;BME280;48703;51.248;-0.546;2023-07-13T14:39:11;101009;;;20.42;64.47
62632;BME280;48703;51.248;-0.546;2023-07-13T14:42:10;101004;;;20.29;63.30
62632;BME280;48703;51.248;-0.546;2023-07-13T14:45:12;101007;;;20.17;63.91
62632;BME280;48703;51.248;-0.546;2023-07-13T14:48:14;101011;;;20.09;64.51
62632;BME280;48703;51.248;-0.546;2023-07-13T14:51:15;101010;;;20.06;64.41
62632;BME280;48703;51.248;-0.546;2023-07-13T14:54:17;101006;;;20.08;65.76
62632;BME280;48703;51.248;-0.546;2023-07-13T14:57:19;101005;;;20.11;64.31
62632;BME280;48703;51.248;-0.546;2023-07-13T15:00:21;101007;;;20.09;63.27
62632;BME280;48703;51.248;-0.546;2023-07-13T15:03:23;101004;;;20.05;63.43
62632;BME280;48703;51.248;-0.546;2023-07-13T15:06:25;101007;;;20.08;64.26
62632;BME280;48703;51.248;-0.546;2023-07-13T15:09:27;101007;;;20.11;65.09
62632;BME280;48703;51.248;-0.546;2023-07-13T15:12:28;101010;;;20.07;63.19
62632;BME280;48703;51.248;-0.546;2023-07-13T15:15:31;101009;;;20.03;63.43
62632;BME280;48703;51.248;-0.546;2023-07-13T15:18:32;101009;;;19.99;62.99
62632;BME280;48703;51.248;-0.546;2023-07-13T15:21:34;101012;;;19.95;63.55
62632;BME280;48703;51.248;-0.546;2023-07-13T15:24:36;101013;;;19.93;63.07
62632;BME280;48703;51.248;-0.546;2023-07-13T15:27:38;101015;;;19.88;63.96
62632;BME280;48703;51.248;-0.546;2023-07-13T15:30:40;101016;;;19.85;65.11
62632;BME280;48703;51.248;-0.546;2023-07-13T15:33:41;101021;;;19.78;65.24
62632;BME280;48703;51.248;-0.546;2023-07-13T15:36:43;101026;;;19.66;66.07
62632;BME280;48703;51.248;-0.546;2023-07-13T15:39:45;101028;;;19.53;67.27
62632;BME280;48703;51.248;-0.546;2023-07-13T15:42:47;101032;;;19.40;68.56
62632;BME280;48703;51.248;-0.546;2023-07-13T15:45:49;101031;;;19.29;70.33
62632;BME280;48703;51.248;-0.546;2023-07-13T15:48:51;101032;;;19.20;71.47
62632;BME280;48703;51.248;-0.546;2023-07-13T15:51:53;101031;;;19.08;73.08
62632;BME280;48703;51.248;-0.546;2023-07-13T15:54:54;101025;;;18.94;74.32
62632;BME280;48703;51.248;-0.546;2023-07-13T15:57:56;101019;;;18.89;75.69
62632;BME280;48703;51.248;-0.546;2023-07-13T16:00:58;101015;;;18.88;75.77
62632;BME280;48703;51.248;-0.546;2023-07-13T16:04:00;101012;;;18.85;75.39
62632;BME280;48703;51.248;-0.546;2023-07-13T16:07:02;101002;;;18.87;75.81
62632;BME280;48703;51.248;-0.546;2023-07-13T16:10:04;101001;;;18.90;75.57
62632;BME280;48703;51.248;-0.546;2023-07-13T16:13:08;101003;;;18.94;75.23